Time;durP1;ratioP1;P1;durP2;ratioP2;P2;SDS_P1;SDS_P2;PMS_P1;PMS_P2;Temp;Humidity;BMP_temperature;BMP_pressure;BME280_temperature;BME280_humidity;BME280_pressure;Samples;Min_cycle;Max_cycle;Signal;HPM_P1;HPM_P2
2023/09/02 00:00:14;;;;;;;5.65;3.67;;;;;;;15.93;100.00;100808.00;4898247;29;20051;-66
2023/09/02 00:03:19;;;;;;;6.57;3.75;;;;;;;15.94;100.00;100804.41;4898354;29;20119;-66
2023/09/02 00:06:23;;;;;;;8.50;3.53;;;;;;;15.85;100.00;100794.50;4898188;29;20571;-66
2023/09/02 00:09:26;;;;;;;9.18;3.17;;;;;;;15.87;100.00;100791.78;4897951;29;20043;-67
2023/09/02 00:12:30;;;;;;;10.52;3.67;;;;;;;15.74;100.00;100797.91;4897782;29;20140;-66
2023/09/02 00:15:34;;;;;;;14.80;3.38;;;;;;;15.69;100.00;100802.63;4901857;29;20135;-67
2023/09/02 00:18:37;;;;;;;11.55;4.05;;;;;;;15.68;100.00;100805.38;4915743;29;20047;-66
2023/09/02 00:21:41;;;;;;;15.18;3.63;;;;;;;15.65;100.00;100797.66;4916011;29;20103;-66
2023/09/02 00:24:44;;;;;;;14.13;3.88;;;;;;;15.52;100.00;100803.78;4916361;29;20426;-66
2023/09/02 00:27:48;;;;;;;18.92;4.97;;;;;;;15.50;100.00;100805.66;4916840;29;20047;-67
2023/09/02 00:30:53;;;;;;;8.88;3.55;;;;;;;15.48;100.00;100804.94;4898638;29;20147;-67
2023/09/02 00:33:56;;;;;;;7.05;3.92;;;;;;;15.50;100.00;100810.09;4898665;29;20131;-67
2023/09/02 00:36:59;;;;;;;7.70;4.13;;;;;;;15.43;100.00;100809.66;4898518;29;20060;-67
2023/09/02 00:40:03;;;;;;;7.82;4.05;;;;;;;15.42;100.00;100807.16;4886951;29;20048;-67
2023/09/02 00:43:07;;;;;;;9.55;3.80;;;;;;;15.43;100.00;100817.56;4893840;29;20164;-66
2023/09/02 00:46:11;;;;;;;5.47;3.28;;;;;;;15.49;100.00;100814.53;4898005;29;20092;-66
2023/09/02 00:49:14;;;;;;;9.07;3.65;;;;;;;15.50;100.00;100805.66;4897449;29;20048;-67
2023/09/02 00:52:19;;;;;;;4.45;3.63;;;;;;;15.48;100.00;100812.84;4897712;29;20072;-67
2023/09/02 00:55:22;;;;;;;8.57;3.70;;;;;;;15.49;100.00;100808.41;4898064;29;20100;-66
2023/09/02 00:58:25;;;;;;;8.80;4.25;;;;;;;15.43;100.00;100811.47;4897985;29;20044;-66
2023/09/02 01:01:31;;;;;;;10.32;3.40;;;;;;;15.42;100.00;100807.16;4886398;29;20102;-67
2023/09/02 01:04:35;;;;;;;13.48;4.55;;;;;;;15.41;100.00;100801.03;4886430;29;20132;-67
2023/09/02 01:07:39;;;;;;;7.93;3.40;;;;;;;15.37;100.00;100804.81;4897672;29;20058;-67
2023/09/02 01:10:43;;;;;;;4.38;3.40;;;;;;;15.43;100.00;100799.13;4897684;29;20071;-67
2023/09/02 01:13:46;;;;;;;7.80;3.47;;;;;;;15.44;100.00;100811.34;4897831;29;20180;-67
2023/09/02 01:16:49;;;;;;;6.32;3.20;;;;;;;15.41;100.00;100814.22;4885866;29;20630;-67
2023/09/02 01:19:56;;;;;;;5.57;3.50;;;;;;;15.39;100.00;100817.91;4886065;29;20055;-67
2023/09/02 01:23:24;;;;;;;7.43;3.38;;;;;;;15.28;100.00;100816.84;4897061;29;20067;-67
2023/09/02 01:27:02;;;;;;;10.35;4.25;;;;;;;15.26;100.00;100812.63;4896314;29;20100;-67
2023/09/02 01:30:13;;;;;;;10.50;3.38;;;;;;;15.27;100.00;100809.03;4897253;29;20510;-67
2023/09/02 01:33:18;;;;;;;11.40;3.60;;;;;;;15.32;100.00;100812.22;4893740;29;20043;-66
2023/09/02 01:36:22;;;;;;;10.50;3.53;;;;;;;15.31;100.00;100823.66;4897666;29;20063;-67
2023/09/02 01:39:26;;;;;;;4.80;3.00;;;;;;;15.35;100.00;100823.38;4897569;29;20048;-66
2023/09/02 01:42:31;;;;;;;7.15;3.30;;;;;;;15.32;100.00;100812.22;4886074;29;20104;-67
2023/09/02 01:45:35;;;;;;;11.18;3.00;;;;;;;15.32;100.00;100812.22;4897092;29;20104;-66
2023/09/02 01:48:39;;;;;;;6.65;3.00;;;;;;;15.30;100.00;100822.00;4897569;29;20052;-67
2023/09/02 01:51:43;;;;;;;5.40;3.08;;;;;;;15.25;100.00;100826.72;4897190;29;20049;-67
2023/09/02 01:54:46;;;;;;;7.78;3.00;;;;;;;15.22;100.00;100832.19;4897477;29;20153;-67
2023/09/02 01:57:50;;;;;;;6.38;3.35;;;;;;;15.22;100.00;100833.06;4885623;29;20044;-67
2023/09/02 02:00:54;;;;;;;3.67;3.20;;;;;;;15.23;100.00;100828.63;4885664;29;20410;-67
2023/09/02 02:04:03;;;;;;;5.75;2.92;;;;;;;15.19;100.00;100832.38;4885789;29;20095;-67
2023/09/02 02:07:10;;;;;;;5.18;3.08;;;;;;;15.18;100.00;100830.72;4897296;29;20055;-67
2023/09/02 02:10:16;;;;;;;6.70;3.30;;;;;;;15.18;100.00;100830.72;4897457;29;20108;-67
2023/09/02 02:13:19;;;;;;;5.30;3.45;;;;;;;15.21;100.00;100835.78;4885528;29;20051;-67
2023/09/02 02:16:24;;;;;;;9.02;3.40;;;;;;;15.22;100.00;100838.31;4896571;29;20662;-67
2023/09/02 02:19:28;;;;;;;5.82;4.07;;;;;;;15.18;100.00;100841.25;4897272;29;20048;-67
2023/09/02 02:22:32;;;;;;;5.88;4.03;;;;;;;15.19;100.00;100833.25;4897213;29;20048;-67
2023/09/02 02:25:35;;;;;;;6.68;4.47;;;;;;;15.20;100.00;100845.47;4885733;29;20101;-67
2023/09/02 02:28:38;;;;;;;5.30;4.45;;;;;;;15.16;100.00;100849.25;4885683;29;20079;-67
2023/09/02 02:31:42;;;;;;;6.90;4.45;;;;;;;15.16;100.00;100848.44;4885597;29;20096;-67
2023/09/02 02:34:45;;;;;;;7.57;4.90;;;;;;;15.15;100.00;100857.25;4899362;29;20047;-67
2023/09/02 02:37:49;;;;;;;7.00;4.10;;;;;;;15.13;100.00;100859.16;4900404;29;20411;-67
2023/09/02 02:40:52;;;;;;;9.35;4.15;;;;;;;15.19;100.00;100858.72;4888179;29;20083;-67
2023/09/02 02:43:56;;;;;;;6.78;4.32;;;;;;;15.11;100.00;100856.63;4899952;29;20058;-67
2023/09/02 02:46:59;;;;;;;7.05;4.53;;;;;;;15.16;100.00;100859.81;4899648;29;20050;-67
2023/09/02 02:50:03;;;;;;;6.45;4.93;;;;;;;15.06;100.00;100858.69;4888481;29;20186;-67
2023/09/02 02:53:07;;;;;;;6.93;4.65;;;;;;;15.11;100.00;100856.63;4888341;29;20582;-67
2023/09/02 02:56:11;;;;;;;5.53;4.57;;;;;;;15.09;100.00;100864.63;4888501;29;20470;-67
2023/09/02 02:59:13;;;;;;;6.15;4.78;;;;;;;15.10;100.00;100861.03;4888624;29;20104;-67
2023/09/02 03:02:17;;;;;;;8.30;4.78;;;;;;;15.11;100.00;100865.34;4888658;29;20055;-67
2023/09/02 03:05:21;;;;;;;7.55;4.82;;;;;;;15.13;100.00;100864.44;4897334;29;20073;-67
2023/09/02 03:08:24;;;;;;;6.38;4.72;;;;;;;15.08;100.00;100873.44;4898974;29;20093;-67
2023/09/02 03:11:28;;;;;;;7.95;4.20;;;;;;;15.00;100.00;100869.66;4887542;29;20435;-67
2023/09/02 03:14:31;;;;;;;10.05;4.50;;;;;;;15.01;100.00;100880.06;4887583;29;20044;-67
2023/09/02 03:17:35;;;;;;;10.07;5.20;;;;;;;14.99;100.00;100881.94;4888178;29;20052;-66
2023/09/02 03:20:39;;;;;;;6.65;4.60;;;;;;;15.00;100.00;100886.28;4877526;29;20051;-66
2023/09/02 03:23:42;;;;;;;6.65;4.00;;;;;;;15.00;100.00;100886.28;4899774;29;20407;-67
2023/09/02 03:26:46;;;;;;;6.53;4.63;;;;;;;15.01;100.00;100893.25;4888367;29;20054;-67
2023/09/02 03:29:50;;;;;;;8.52;4.55;;;;;;;14.96;100.00;100895.31;4899433;29;20075;-66
2023/09/02 03:32:54;;;;;;;13.82;4.25;;;;;;;15.00;100.00;100888.94;4888106;29;20096;-67
2023/09/02 03:35:57;;;;;;;6.85;4.18;;;;;;;15.06;100.00;100896.44;4899454;29;20742;-67
2023/09/02 03:39:00;;;;;;;6.75;4.32;;;;;;;15.03;100.00;100901.91;4907391;29;20051;-67
2023/09/02 03:42:04;;;;;;;7.10;4.22;;;;;;;15.07;100.00;100918.34;4918387;29;20534;-66
2023/09/02 03:45:10;;;;;;;5.68;4.43;;;;;;;15.05;100.00;100905.25;4917577;29;20055;-67
2023/09/02 03:48:18;;;;;;;6.38;4.50;;;;;;;15.04;100.00;100908.84;4906319;29;20519;-67
2023/09/02 03:51:21;;;;;;;6.82;3.80;;;;;;;14.91;100.00;100904.47;4906500;29;20410;-67
2023/09/02 03:54:29;;;;;;;5.55;3.40;;;;;;;14.94;100.00;100902.50;4906778;29;20090;-67
2023/09/02 03:57:32;;;;;;;5.97;3.13;;;;;;;14.98;100.00;100898.72;4918037;29;20185;-66
2023/09/02 04:00:36;;;;;;;5.78;4.28;;;;;;;14.92;100.00;100903.53;4918229;29;20098;-67
2023/09/02 04:03:39;;;;;;;4.53;3.00;;;;;;;15.07;100.00;100906.00;4905958;29;20112;-67
2023/09/02 04:06:46;;;;;;;4.70;3.53;;;;;;;15.13;100.00;100902.16;4918154;29;20529;-67
2023/09/02 04:09:50;;;;;;;5.72;3.22;;;;;;;15.14;100.00;100911.72;4918033;29;20117;-66
2023/09/02 04:12:53;;;;;;;4.00;2.90;;;;;;;15.10;100.00;100913.72;4917866;29;20478;-67
2023/09/02 04:15:57;;;;;;;5.35;2.92;;;;;;;15.19;100.00;100906.13;4906207;29;20066;-67
2023/09/02 04:19:04;;;;;;;4.85;2.75;;;;;;;15.15;100.00;100908.13;4917745;29;20043;-67
2023/09/02 04:22:07;;;;;;;7.80;2.90;;;;;;;15.13;100.00;100909.19;4905312;29;20143;-66
2023/09/02 04:25:14;;;;;;;4.25;2.80;;;;;;;15.15;100.00;100907.28;4905339;29;20052;-67
2023/09/02 04:28:18;;;;;;;4.90;3.00;;;;;;;15.13;100.00;100906.56;4904235;29;20090;-67
2023/09/02 04:31:22;;;;;;;4.28;3.10;;;;;;;15.08;100.00;100905.06;4905812;29;20525;-66
2023/09/02 04:34:26;;;;;;;5.28;3.15;;;;;;;15.04;100.00;100911.47;4917565;29;20055;-66
2023/09/02 04:37:30;;;;;;;5.25;3.13;;;;;;;15.10;100.00;100912.88;4905473;29;20043;-67
2023/09/02 04:40:37;;;;;;;6.50;3.55;;;;;;;15.12;100.00;100916.22;4905523;29;20043;-67
2023/09/02 04:43:41;;;;;;;5.40;3.40;;;;;;;15.11;100.00;100925.94;4905551;29;20157;-67
2023/09/02 04:46:46;;;;;;;4.35;3.22;;;;;;;15.10;100.00;100918.97;4898446;29;20107;-67
2023/09/02 04:49:49;;;;;;;5.78;3.40;;;;;;;15.03;100.00;100917.69;4905366;29;20047;-66
2023/09/02 04:52:53;;;;;;;4.90;2.83;;;;;;;15.01;100.00;100914.31;4904794;29;20067;-67
2023/09/02 04:55:59;;;;;;;4.78;3.50;;;;;;;15.01;100.00;100911.69;4904355;29;20043;-67
2023/09/02 04:59:02;;;;;;;4.57;3.35;;;;;;;15.02;100.00;100913.34;4904366;29;20103;-67
2023/09/02 05:02:07;;;;;;;5.00;2.72;;;;;;;15.04;100.00;100918.53;4916604;29;20043;-66
2023/09/02 05:05:10;;;;;;;4.45;2.83;;;;;;;15.07;100.00;100908.66;4904356;29;20147;-67
2023/09/02 05:08:13;;;;;;;4.55;2.90;;;;;;;15.09;100.00;100912.03;4905346;29;20055;-67
2023/09/02 05:11:17;;;;;;;7.57;2.88;;;;;;;15.10;100.00;100918.16;4905362;29;20115;-67
2023/09/02 05:14:20;;;;;;;5.15;3.53;;;;;;;15.09;100.00;100917.31;4902857;29;20112;-66
2023/09/02 05:17:24;;;;;;;3.83;2.90;;;;;;;15.08;100.00;100920.84;4904500;29;20055;-65
2023/09/02 05:20:27;;;;;;;4.78;2.70;;;;;;;15.06;100.00;100914.88;4915153;29;20785;-66
2023/09/02 05:23:32;;;;;;;3.47;2.53;;;;;;;15.01;100.00;100916.09;4915122;29;20418;-65
2023/09/02 05:26:35;;;;;;;3.95;2.30;;;;;;;15.02;100.00;100921.25;4916486;29;20111;-66
2023/09/02 05:29:38;;;;;;;4.28;2.75;;;;;;;15.07;100.00;100928.88;4915614;29;20410;-66
2023/09/02 05:32:42;;;;;;;5.32;2.47;;;;;;;15.09;100.00;100930.47;4916314;29;20058;-66
2023/09/02 05:35:45;;;;;;;5.03;2.90;;;;;;;15.04;100.00;100931.72;4916230;29;20170;-66
2023/09/02 05:38:48;;;;;;;5.15;2.88;;;;;;;15.10;100.00;100928.69;4916569;29;20115;-66
2023/09/02 05:41:52;;;;;;;5.13;2.90;;;;;;;15.10;100.00;100923.41;4916195;29;20054;-66
2023/09/02 05:44:55;;;;;;;6.82;3.70;;;;;;;15.10;100.00;100926.88;4904737;29;20059;-66
2023/09/02 05:48:00;;;;;;;6.13;2.90;;;;;;;15.11;100.00;100933.84;4916237;29;20411;-66
2023/09/02 05:51:04;;;;;;;3.90;2.30;;;;;;;15.11;100.00;100936.47;4916469;29;20128;-66
2023/09/02 05:54:09;;;;;;;3.90;2.80;;;;;;;15.14;100.00;100930.16;4916489;29;20103;-66
2023/09/02 05:57:12;;;;;;;5.18;2.50;;;;;;;15.09;100.00;100938.38;4916072;29;20089;-66
2023/09/02 06:00:16;;;;;;;3.20;2.40;;;;;;;15.14;100.00;100945.97;4916281;29;20115;-66
2023/09/02 06:03:19;;;;;;;4.93;2.40;;;;;;;15.00;100.00;100946.03;4916245;29;20050;-66
2023/09/02 06:06:23;;;;;;;3.90;2.55;;;;;;;15.03;100.00;100945.81;4916381;29;20176;-66
2023/09/02 06:09:27;;;;;;;5.15;1.90;;;;;;;15.05;100.00;100942.13;4917993;29;20522;-66
2023/09/02 06:12:30;;;;;;;3.92;2.58;;;;;;;15.09;100.00;100943.63;4919960;29;20149;-66
2023/09/02 06:15:33;;;;;;;3.13;2.25;;;;;;;15.11;100.00;100941.72;4920110;29;20067;-66
2023/09/02 06:18:37;;;;;;;3.40;1.90;;;;;;;15.09;100.00;100946.28;4920137;29;20573;-66
2023/09/02 06:21:40;;;;;;;5.90;2.17;;;;;;;15.02;100.00;100952.00;4920027;29;20051;-66
2023/09/02 06:24:43;;;;;;;3.65;1.58;;;;;;;15.03;100.00;100943.19;4919783;29;20050;-66
2023/09/02 06:27:47;;;;;;;2.97;1.95;;;;;;;15.14;100.00;100948.59;4919604;29;20052;-66
2023/09/02 06:30:50;;;;;;;3.42;1.88;;;;;;;15.17;100.00;100951.03;4919526;29;20532;-66
2023/09/02 06:33:54;;;;;;;3.53;2.55;;;;;;;15.20;100.00;100955.28;4918702;29;20051;-66
2023/09/02 06:36:57;;;;;;;3.85;2.33;;;;;;;15.20;100.00;100952.63;4918853;29;20067;-66
2023/09/02 06:40:00;;;;;;;6.18;3.05;;;;;;;15.23;100.00;100949.81;4907940;29;20114;-66
2023/09/02 06:43:03;;;;;;;3.60;2.80;;;;;;;15.25;100.00;100954.03;4907484;29;20055;-66
2023/09/02 06:46:15;;;;;;;3.38;2.35;;;;;;;15.23;100.00;100961.19;4919382;29;20139;-66
2023/09/02 06:49:18;;;;;;;3.97;2.45;;;;;;;15.21;100.00;100964.84;4917126;29;20046;-66
2023/09/02 06:52:22;;;;;;;3.70;2.58;;;;;;;15.22;100.00;100967.41;4918809;29;20546;-66
2023/09/02 06:55:25;;;;;;;3.67;2.30;;;;;;;15.26;100.00;100975.94;4919412;29;20050;-66
2023/09/02 06:58:28;;;;;;;3.75;2.50;;;;;;;15.26;100.00;100982.06;4919005;29;20598;-66
2023/09/02 07:01:32;;;;;;;5.32;2.85;;;;;;;15.07;100.00;100994.72;4918897;29;20051;-66
2023/09/02 07:04:35;;;;;;;5.20;3.45;;;;;;;14.71;100.00;101005.75;4918883;29;20043;-66
2023/09/02 07:07:39;;;;;;;5.78;3.45;;;;;;;14.51;100.00;101012.25;4918956;29;20062;-66
2023/09/02 07:10:42;;;;;;;5.40;3.38;;;;;;;14.80;100.00;101018.34;4919207;29;20566;-66
2023/09/02 07:13:46;;;;;;;6.20;3.50;;;;;;;14.83;100.00;101012.88;4917374;29;20047;-66
2023/09/02 07:16:49;;;;;;;4.15;2.95;;;;;;;14.73;100.00;101017.03;4917671;29;20062;-66
2023/09/02 07:19:52;;;;;;;4.13;3.00;;;;;;;14.79;100.00;101029.81;4918787;29;20467;-66
2023/09/02 07:22:56;;;;;;;5.32;2.97;;;;;;;15.15;100.00;101025.81;4918726;29;20047;-66
2023/09/02 07:26:01;;;;;;;4.32;3.08;;;;;;;15.17;100.00;101034.50;4918500;29;20136;-66
2023/09/02 07:29:04;;;;;;;3.65;3.00;;;;;;;15.42;100.00;101039.88;4917818;29;20050;-66
2023/09/02 07:32:07;;;;;;;4.13;2.97;;;;;;;15.54;100.00;101035.63;4917807;29;20083;-66
2023/09/02 07:35:11;;;;;;;4.50;3.38;;;;;;;15.09;100.00;101050.75;4917266;29;20183;-66
2023/09/02 07:38:14;;;;;;;4.03;2.75;;;;;;;15.32;100.00;101055.44;4916424;29;20414;-66
2023/09/02 07:41:18;;;;;;;5.20;3.20;;;;;;;15.53;100.00;101063.75;4905578;29;20541;-66
2023/09/02 07:44:21;;;;;;;;;;;;;;;15.63;100.00;101060.50;4918819;29;20131;-66
2023/09/02 07:47:24;;;;;;;3.88;2.65;;;;;;;15.32;100.00;101065.13;4918464;29;20388;-66
2023/09/02 07:50:27;;;;;;;3.65;2.35;;;;;;;15.37;100.00;101063.03;4918285;29;20104;-66
2023/09/02 07:53:31;;;;;;;3.55;2.30;;;;;;;15.65;100.00;101066.53;4917829;29;20047;-66
2023/09/02 07:56:35;;;;;;;4.60;2.20;;;;;;;15.79;100.00;101064.75;4918149;29;20518;-65
2023/09/02 07:59:41;;;;;;;3.25;2.55;;;;;;;15.94;100.00;101076.06;4918107;29;20039;-65
2023/09/02 08:02:44;;;;;;;4.45;2.22;;;;;;;16.17;100.00;101073.69;4885401;29;20058;-66
2023/09/02 08:05:48;;;;;;;2.63;2.03;;;;;;;16.30;99.39;101079.81;4896193;29;20458;-65
2023/09/02 08:08:54;;;;;;;2.90;2.22;;;;;;;16.36;100.00;101084.69;4896793;29;20136;-65
2023/09/02 08:11:57;;;;;;;6.55;2.58;;;;;;;16.46;98.50;101075.22;4903242;29;20051;-65
2023/09/02 08:15:01;;;;;;;3.08;2.35;;;;;;;16.59;97.88;101080.50;4916852;29;20047;-66
2023/09/02 08:18:04;;;;;;;3.35;2.47;;;;;;;16.62;97.21;101074.97;4916020;29;20111;-65
2023/09/02 08:21:09;;;;;;;2.45;1.63;;;;;;;16.61;97.04;101064.53;4916929;29;20051;-65
2023/09/02 08:24:14;;;;;;;3.53;2.65;;;;;;;16.67;96.82;101070.22;4903336;29;20047;-65
2023/09/02 08:27:17;;;;;;;3.63;1.88;;;;;;;16.68;96.04;101063.16;4917022;29;20467;-65
2023/09/02 08:30:20;;;;;;;3.05;1.90;;;;;;;16.66;96.19;101070.34;4916054;29;20116;-65
2023/09/02 08:33:24;;;;;;;3.58;2.15;;;;;;;16.80;95.96;101064.13;4916326;29;20175;-65
2023/09/02 08:36:27;;;;;;;3.05;2.08;;;;;;;16.96;95.21;101062.94;4914780;29;20100;-66
2023/09/02 08:39:36;;;;;;;3.05;2.10;;;;;;;16.86;95.35;101066.34;4915161;29;20497;-65
2023/09/02 08:42:40;;;;;;;3.10;2.30;;;;;;;17.07;95.35;101061.34;4915052;29;20605;-65
2023/09/02 08:45:55;;;;;;;3.30;2.50;;;;;;;17.05;94.33;101066.75;4915924;29;20047;-65
2023/09/02 08:49:38;;;;;;;3.35;2.65;;;;;;;17.13;94.81;101075.00;4915091;29;20531;-66
2023/09/02 08:52:41;;;;;;;5.50;2.65;;;;;;;17.24;93.51;101078.66;4915005;29;20488;-65
2023/09/02 08:55:47;;;;;;;3.20;2.30;;;;;;;17.29;94.83;101066.78;4913964;29;20127;-64
2023/09/02 08:58:53;;;;;;;3.75;2.53;;;;;;;17.30;94.37;101054.44;4914516;29;20199;-64
2023/09/02 09:01:57;;;;;;;2.90;2.17;;;;;;;17.31;93.87;101056.94;4915092;29;20531;-64
2023/09/02 09:05:03;;;;;;;3.30;2.63;;;;;;;17.39;92.55;101061.69;4913080;29;20047;-66
2023/09/02 09:08:06;;;;;;;2.75;1.75;;;;;;;17.33;94.34;101065.63;4913503;29;20047;-64
2023/09/02 09:11:11;;;;;;;3.22;1.67;;;;;;;17.46;94.31;101054.16;4914095;29;20115;-67
2023/09/02 09:14:24;;;;;;;4.38;1.95;;;;;;;17.58;95.42;101063.81;4914577;29;20043;-64
2023/09/02 09:17:30;;;;;;;3.28;2.53;;;;;;;17.77;95.02;101069.50;4915686;29;20051;-64
2023/09/02 09:20:35;;;;;;;3.08;1.90;;;;;;;17.86;92.96;101063.50;4914531;29;20533;-64
2023/09/02 09:23:39;;;;;;;2.63;1.70;;;;;;;17.94;92.65;101076.19;4912398;29;20047;-64
2023/09/02 09:26:44;;;;;;;4.45;2.05;;;;;;;18.07;92.74;101076.94;4913606;29;20050;-65
2023/09/02 09:29:48;;;;;;;3.47;1.83;;;;;;;18.07;91.79;101060.25;4913011;29;20132;-64
2023/09/02 09:33:01;;;;;;;5.28;2.30;;;;;;;17.98;93.99;101074.16;4913871;29;20130;-65
2023/09/02 09:36:13;;;;;;;;;;;;;;;18.02;92.92;101078.25;4915614;29;20538;-65
2023/09/02 09:39:17;;;;;;;3.72;2.45;;;;;;;17.58;96.78;101071.75;4915647;29;19922;-64
2023/09/02 09:42:34;;;;;;;2.80;1.92;;;;;;;17.89;95.83;101071.22;4915384;29;20071;-65
2023/09/02 09:45:49;;;;;;;3.95;1.88;;;;;;;18.14;93.89;101074.69;4902621;29;20058;-64
2023/09/02 09:48:52;;;;;;;3.17;2.53;;;;;;;18.25;93.05;101072.09;4913879;29;20063;-76
2023/09/02 09:52:01;;;;;;;3.75;2.28;;;;;;;18.25;92.64;101082.69;4913785;29;20132;-64
2023/09/02 09:55:04;;;;;;;3.22;2.22;;;;;;;18.08;92.25;101073.34;4915148;29;20455;-64
2023/09/02 09:58:08;;;;;;;3.47;1.80;;;;;;;17.92;95.61;101087.84;4915122;29;20519;-64
2023/09/02 10:01:21;;;;;;;2.97;1.98;;;;;;;17.92;96.95;101082.53;4914978;29;20083;-64
2023/09/02 10:04:24;;;;;;;3.72;2.00;;;;;;;17.92;98.29;101087.84;4915101;29;20066;-64
2023/09/02 10:07:33;;;;;;;3.85;1.85;;;;;;;17.94;98.41;101085.94;4915179;29;20107;-64
2023/09/02 10:10:38;;;;;;;2.90;1.80;;;;;;;18.01;99.71;101087.16;4914780;29;20516;-65
2023/09/02 10:13:41;;;;;;;2.80;1.83;;;;;;;18.07;98.61;101084.91;4921229;29;20054;-65
2023/09/02 10:16:46;;;;;;;3.03;2.08;;;;;;;18.06;99.22;101088.50;4933758;29;20577;-65
2023/09/02 10:19:49;;;;;;;2.58;1.60;;;;;;;18.00;98.78;101082.84;4933904;29;20063;-64
2023/09/02 10:22:56;;;;;;;4.30;1.60;;;;;;;18.18;100.00;101083.25;4934128;29;20098;-78
2023/09/02 10:26:08;;;;;;;4.38;1.35;;;;;;;18.39;100.00;101083.44;4916465;29;20407;-77
2023/09/02 10:29:13;;;;;;;3.88;1.45;;;;;;;18.48;98.30;101085.38;4915001;29;20083;-79
2023/09/02 10:32:18;;;;;;;3.65;1.50;;;;;;;18.57;99.79;101084.66;4915035;29;20414;-69
2023/09/02 10:35:22;;;;;;;2.47;1.30;;;;;;;18.69;98.22;101078.41;4913394;29;20661;-79
2023/09/02 10:38:28;;;;;;;3.10;1.17;;;;;;;18.87;98.92;101083.28;4914307;29;20411;-73
2023/09/02 10:41:33;;;;;;;3.55;1.48;;;;;;;18.98;98.78;101083.25;4913814;29;20410;-71
2023/09/02 10:44:37;;;;;;;3.40;0.88;;;;;;;19.09;97.19;101079.78;4913745;29;20472;-72
2023/09/02 10:47:40;;;;;;;3.33;1.73;;;;;;;19.14;97.30;101073.13;4896151;29;20128;-72
2023/09/02 10:50:45;;;;;;;2.30;0.90;;;;;;;19.33;98.06;101061.06;4911315;29;20114;-72
2023/09/02 10:53:50;;;;;;;5.00;1.17;;;;;;;19.45;97.47;101065.38;4914272;29;20112;-72
2023/09/02 10:57:11;;;;;;;2.35;1.10;;;;;;;19.48;94.57;101065.13;4915835;29;20050;-72
2023/09/02 11:00:16;;;;;;;1.80;0.88;;;;;;;19.50;94.23;101057.91;4916091;29;20216;-72
2023/09/02 11:03:46;;;;;;;4.35;1.00;;;;;;;19.61;94.80;101059.66;4916369;29;20479;-71
2023/09/02 11:07:34;;;;;;;1.60;0.70;;;;;;;19.79;93.17;101052.03;4915008;29;20058;-71
2023/09/02 11:11:05;;;;;;;2.80;0.90;;;;;;;19.85;93.82;101056.84;4916135;29;20054;-71
2023/09/02 11:14:08;;;;;;;3.72;0.98;;;;;;;20.01;92.74;101054.59;4914849;29;20189;-71
2023/09/02 11:17:27;;;;;;;2.97;1.20;;;;;;;20.10;91.80;101048.53;4915333;29;20059;-68
2023/09/02 11:20:48;;;;;;;2.97;0.82;;;;;;;20.14;92.40;101047.28;4915535;29;20159;-73
2023/09/02 11:23:51;;;;;;;2.70;0.80;;;;;;;20.23;91.99;101042.16;4914787;29;20184;-70
2023/09/02 11:26:59;;;;;;;2.47;0.80;;;;;;;20.30;92.16;101041.50;4915242;29;20510;-67
2023/09/02 11:30:09;;;;;;;2.05;0.80;;;;;;;20.51;91.30;101038.84;4916207;29;20104;-69
2023/09/02 11:33:18;;;;;;;5.10;1.02;;;;;;;20.64;88.54;101039.50;4915075;29;20086;-75
2023/09/02 11:36:21;;;;;;;1.35;0.55;;;;;;;20.79;86.97;101025.84;4915674;29;20079;-73
2023/09/02 11:39:29;;;;;;;4.10;0.70;;;;;;;20.86;86.32;101025.16;4916505;29;20099;-74
2023/09/02 11:42:32;;;;;;;4.78;0.52;;;;;;;20.91;84.17;101030.09;4914736;29;20411;-72
2023/09/02 11:45:38;;;;;;;1.65;0.57;;;;;;;21.04;83.12;101019.22;4903659;29;20043;-71
2023/09/02 11:48:42;;;;;;;3.40;0.52;;;;;;;20.99;82.14;101027.56;4915682;29;20087;-65
2023/09/02 11:51:46;;;;;;;1.95;0.70;;;;;;;21.05;81.93;101024.38;4916846;29;20180;-67
2023/09/02 11:54:52;;;;;;;1.48;0.50;;;;;;;21.08;80.63;101020.59;4915533;29;20051;-66
2023/09/02 11:57:55;;;;;;;2.22;0.52;;;;;;;21.24;83.07;101028.91;4913354;29;20088;-75
2023/09/02 12:01:01;;;;;;;2.65;0.55;;;;;;;21.43;78.80;101030.78;4913596;29;20202;-65
2023/09/02 12:04:04;;;;;;;3.50;0.60;;;;;;;21.50;77.97;101031.06;4915625;29;20062;-66
2023/09/02 12:07:09;;;;;;;1.85;0.43;;;;;;;21.58;78.51;101029.41;4914242;29;20046;-66
2023/09/02 12:10:13;;;;;;;1.33;0.50;;;;;;;21.72;78.37;101021.97;4915378;29;20047;-66
2023/09/02 12:13:17;;;;;;;1.48;0.40;;;;;;;21.79;77.88;101020.44;4914466;29;20107;-66
2023/09/02 12:16:20;;;;;;;2.45;0.82;;;;;;;22.04;74.92;101013.69;4902755;29;20055;-66
2023/09/02 12:19:24;;;;;;;2.88;0.90;;;;;;;22.19;75.19;101016.78;4915013;29;20513;-66
2023/09/02 12:22:27;;;;;;;3.92;0.60;;;;;;;22.25;74.41;101018.88;4914947;29;20557;-72
2023/09/02 12:25:33;;;;;;;1.80;0.55;;;;;;;22.48;71.71;101020.19;4913917;29;20039;-71
2023/09/02 12:28:38;;;;;;;1.15;0.40;;;;;;;22.86;72.04;101021.03;4914662;29;20050;-70
2023/09/02 12:31:49;;;;;;;1.77;0.50;;;;;;;23.19;70.28;101024.09;4915328;29;21493;-67
2023/09/02 12:34:52;;;;;;;2.42;0.75;;;;;;;23.58;67.48;101031.81;4914155;29;20091;-67
2023/09/02 12:38:06;;;;;;;2.67;0.60;;;;;;;23.99;67.43;101035.72;4914826;29;20046;-67
2023/09/02 12:41:09;;;;;;;2.72;0.63;;;;;;;24.36;64.14;101030.13;4916148;29;20106;-67
2023/09/02 12:44:19;;;;;;;2.22;0.50;;;;;;;24.94;62.82;101025.94;4913791;29;20062;-76
2023/09/02 12:47:26;;;;;;;1.35;0.50;;;;;;;24.83;62.48;101035.09;4902670;29;20514;-70
2023/09/02 12:50:30;;;;;;;1.35;0.43;;;;;;;24.62;63.25;101040.00;4915610;29;20533;-71
2023/09/02 12:53:37;;;;;;;3.38;0.50;;;;;;;25.45;60.85;101036.66;4913971;29;20055;-70
2023/09/02 12:56:41;;;;;;;2.70;0.50;;;;;;;26.04;58.33;101034.72;4916045;29;20426;-71
2023/09/02 12:59:44;;;;;;;1.27;0.50;;;;;;;26.35;56.35;101020.56;4915818;29;20168;-64
2023/09/02 13:02:49;;;;;;;2.38;0.43;;;;;;;25.92;57.61;101025.34;4915085;29;20043;-64
2023/09/02 13:05:53;;;;;;;2.88;0.80;;;;;;;26.76;56.46;101020.47;4913174;29;20039;-63
2023/09/02 13:08:57;;;;;;;4.25;0.82;;;;;;;26.29;57.28;101021.25;4913825;29;20088;-63
2023/09/02 13:12:03;;;;;;;2.58;0.73;;;;;;;26.85;56.07;101022.97;4913731;29;20103;-70
2023/09/02 13:15:08;;;;;;;2.35;0.80;;;;;;;27.86;53.56;101021.19;4914737;29;20090;-70
2023/09/02 13:18:11;;;;;;;1.98;0.60;;;;;;;27.69;51.57;101031.19;4915253;29;20047;-70
2023/09/02 13:21:15;;;;;;;6.95;1.40;;;;;;;27.21;51.72;101030.50;4913156;29;20418;-69
2023/09/02 13:24:23;;;;;;;2.08;0.52;;;;;;;25.70;56.09;101030.31;4913369;29;20043;-70
2023/09/02 13:27:28;;;;;;;1.67;0.70;;;;;;;25.40;58.19;101025.59;4914137;29;20107;-70
2023/09/02 13:30:31;;;;;;;2.20;0.57;;;;;;;28.04;51.65;101034.28;4912219;29;20127;-71
2023/09/02 13:33:34;;;;;;;4.88;1.50;;;;;;;28.19;51.78;101035.16;4912675;29;20096;-71
2023/09/02 13:36:38;;;;;;;5.07;0.82;;;;;;;31.05;44.59;101035.34;4913658;29;20114;-70
2023/09/02 13:39:45;;;;;;;2.85;0.85;;;;;;;33.50;38.52;101027.94;4913802;29;20235;-71
2023/09/02 13:42:50;;;;;;;3.60;1.20;;;;;;;37.89;31.27;101019.06;4914745;29;20046;-69
2023/09/02 13:45:54;;;;;;;2.55;1.30;;;;;;;40.69;26.46;101020.22;4912331;29;20046;-68
2023/09/02 13:48:57;;;;;;;3.10;0.88;;;;;;;37.86;28.52;101017.66;4913118;29;20051;-68
2023/09/02 13:52:01;;;;;;;2.67;0.70;;;;;;;31.54;39.42;101033.41;4915290;29;20589;-67
2023/09/02 13:55:05;;;;;;;1.50;0.60;;;;;;;36.91;30.56;101040.22;4915345;29;20515;-67
2023/09/02 13:58:10;;;;;;;2.45;0.73;;;;;;;31.61;39.84;101047.75;4903489;29;20059;-70
2023/09/02 14:01:13;;;;;;;3.42;1.58;;;;;;;35.04;36.57;101039.00;4915036;29;20062;-69
2023/09/02 14:04:17;;;;;;;2.95;0.40;;;;;;;32.82;39.09;101036.59;4915316;29;20126;-70
2023/09/02 14:07:21;;;;;;;7.70;0.93;;;;;;;36.28;34.94;101033.69;4914799;29;20082;-70
2023/09/02 14:10:26;;;;;;;3.88;1.38;;;;;;;40.36;28.25;101033.19;4915232;29;20157;-69
2023/09/02 14:13:37;;;;;;;5.20;1.05;;;;;;;42.35;25.25;101009.84;4914984;29;20177;-70
2023/09/02 14:16:42;;;;;;;;;;;;;;;43.44;24.22;101011.66;4915495;29;20123;-69